Terminal Aerodrome Forecast
Issued by NWS

Home | Current Version | Previous Version | Graphics & Text | Print | Product List | Glossary On
Versions: 1 2 3 4 5 6 7 8 9 10 11 12 13 14 15 16
000
FTUS43 KICT 231738 AAA
TAFCNU
TAF AMD
KCNU 231738Z 2318/2418 17014G21KT P6SM SCT030 BKN040
      TEMPO 2318/2322 4SM -TSRA BKN025CB
     FM240100 16010KT P6SM BKN070
     FM241000 17009KT P6SM VCTS BKN025CB WS020/20035KT
     FM241200 17009KT P6SM VCTS BKN020CB
     FM241500 18008KT P6SM BKN030=

USA.gov is the U.S. government's official web portal to all federal, state and local government web resources and services.